Time;durP1;ratioP1;P1;durP2;ratioP2;P2;SDS_P1;SDS_P2;PMS_P1;PMS_P2;Temp;Humidity;BMP_temperature;BMP_pressure;BME280_temperature;BME280_humidity;BME280_pressure;Samples;Min_cycle;Max_cycle;Signal;HPM_P1;HPM_P2
2022/11/10 00:00:42;;;;;;;10.23;5.30;;;;;;;9.13;100.00;95824.03;4985882;28;20045;-68
2022/11/10 00:03:15;;;;;;;11.10;4.78;;;;;;;9.15;100.00;95822.75;4990103;28;20121;-68
2022/11/10 00:05:41;;;;;;;13.10;5.53;;;;;;;9.12;100.00;95823.25;4987788;28;20149;-68
2022/11/10 00:08:09;;;;;;;8.88;4.70;;;;;;;9.11;100.00;95819.03;4977594;28;20051;-68
2022/11/10 00:10:55;;;;;;;10.75;5.05;;;;;;;9.11;100.00;95824.28;4984755;28;20046;-68
2022/11/10 00:13:30;;;;;;;10.50;4.55;;;;;;;9.08;100.00;95819.53;4987612;28;20490;-69
2022/11/10 00:18:40;;;;;;;8.95;4.00;;;;;;;9.05;100.00;95827.13;4993512;28;20567;-69
2022/11/10 00:21:08;;;;;;;7.38;4.10;;;;;;;9.04;100.00;95831.59;4985650;28;20038;-69
2022/11/10 00:23:34;;;;;;;7.18;4.25;;;;;;;9.03;100.00;95830.00;4977982;28;20120;-69
2022/11/10 00:26:00;;;;;;;8.35;4.35;;;;;;;8.98;100.00;95837.84;4974807;28;20042;-68
2022/11/10 00:28:29;;;;;;;9.05;4.07;;;;;;;8.99;100.00;95840.22;4973043;28;20054;-68
2022/11/10 00:30:55;;;;;;;6.55;4.03;;;;;;;8.92;100.00;95828.31;4980444;28;20042;-68
2022/11/10 00:33:20;;;;;;;7.80;4.25;;;;;;;8.97;100.00;95838.88;4995013;28;20034;-68
2022/11/10 00:35:46;;;;;;;8.10;3.88;;;;;;;8.99;100.00;95842.03;4986076;28;20053;-68
2022/11/10 00:38:11;;;;;;;6.68;3.53;;;;;;;8.94;100.00;95842.00;4997430;28;20472;-68
2022/11/10 00:40:37;;;;;;;9.43;3.75;;;;;;;8.92;100.00;95844.06;4993060;28;20039;-68
2022/11/10 00:43:02;;;;;;;8.05;3.88;;;;;;;8.95;100.00;95849.63;4966378;28;20114;-68
2022/11/10 00:45:28;;;;;;;8.65;4.05;;;;;;;8.91;100.00;95853.00;4992191;28;20467;-68
2022/11/10 00:47:53;;;;;;;7.90;4.05;;;;;;;8.91;100.00;95858.25;4993883;28;20081;-67
2022/11/10 00:50:19;;;;;;;6.35;3.50;;;;;;;8.87;100.00;95867.66;4990654;28;20602;-68
2022/11/10 00:52:44;;;;;;;6.70;3.65;;;;;;;8.88;100.00;95863.97;4998889;28;20466;-69
2022/11/10 00:55:10;;;;;;;7.53;3.17;;;;;;;8.90;100.00;95867.16;4986576;28;20129;-67
2022/11/10 00:57:35;;;;;;;7.03;3.72;;;;;;;8.91;100.00;95864.28;4986516;28;20574;-69
2022/11/10 01:00:01;;;;;;;6.55;3.95;;;;;;;8.92;100.00;95875.56;4973368;28;20836;-70
2022/11/10 01:02:27;;;;;;;6.38;2.90;;;;;;;8.96;100.00;95874.81;4987865;28;20042;-69
2022/11/10 01:04:53;;;;;;;6.03;2.90;;;;;;;8.96;100.00;95877.44;4973348;28;20062;-69
2022/11/10 01:07:18;;;;;;;10.13;3.45;;;;;;;8.96;100.00;95881.91;4993782;28;20041;-69
2022/11/10 01:09:43;;;;;;;6.20;3.08;;;;;;;8.92;100.00;95880.81;4989068;28;20117;-70
2022/11/10 01:12:09;;;;;;;7.90;3.20;;;;;;;8.90;100.00;95888.16;4987935;28;20054;-69
2022/11/10 01:14:35;;;;;;;7.50;3.45;;;;;;;8.89;100.00;95889.19;4970913;28;20061;-69
2022/11/10 01:17:00;;;;;;;7.97;3.33;;;;;;;8.84;100.00;95890.72;4993004;28;20042;-69
2022/11/10 01:19:26;;;;;;;8.23;3.28;;;;;;;8.90;100.00;95888.16;4990532;28;20400;-70
2022/11/10 01:21:51;;;;;;;6.88;3.30;;;;;;;8.86;100.00;95887.06;4989206;28;20524;-69
2022/11/10 01:24:20;;;;;;;6.13;3.10;;;;;;;8.82;100.00;95887.56;4972644;28;20034;-69
2022/11/10 01:26:47;;;;;;;6.28;2.95;;;;;;;8.82;100.00;95882.31;4986285;28;20069;-69
2022/11/10 01:29:12;;;;;;;7.03;2.95;;;;;;;8.81;100.00;95891.22;4990312;28;20050;-69
2022/11/10 01:31:38;;;;;;;6.65;2.70;;;;;;;8.78;100.00;95891.72;4988460;28;20046;-69
2022/11/10 01:34:04;;;;;;;4.90;2.47;;;;;;;8.81;100.00;95896.47;4959939;28;20105;-69
2022/11/10 01:36:29;;;;;;;4.85;2.60;;;;;;;8.84;100.00;95895.97;4978313;28;20042;-69
2022/11/10 01:38:55;;;;;;;4.38;2.15;;;;;;;8.81;100.00;95901.72;4993751;28;20114;-68
2022/11/10 01:41:21;;;;;;;4.63;2.05;;;;;;;8.78;100.00;95896.97;4978816;28;20047;-69
2022/11/10 01:43:46;;;;;;;3.00;1.90;;;;;;;8.79;100.00;95903.81;4975187;28;20050;-70
2022/11/10 01:46:12;;;;;;;5.13;2.50;;;;;;;8.79;100.00;95909.06;4980504;28;20049;-69
2022/11/10 01:48:58;;;;;;;4.25;2.45;;;;;;;8.74;100.00;95901.13;4995717;28;20042;-69
2022/11/10 01:51:28;;;;;;;7.85;2.22;;;;;;;8.77;100.00;95905.88;4997046;28;20057;-69
2022/11/10 01:53:58;;;;;;;5.00;2.03;;;;;;;8.77;100.00;95905.88;4990024;28;20050;-69
2022/11/10 01:56:25;;;;;;;3.75;2.15;;;;;;;8.72;100.00;95907.66;4987677;28;20034;-70
2022/11/10 01:58:57;;;;;;;5.18;2.00;;;;;;;8.73;100.00;95912.66;4973269;28;20412;-70
2022/11/10 02:01:23;;;;;;;3.58;2.00;;;;;;;8.71;100.00;95914.75;4977954;28;20042;-70
2022/11/10 02:03:52;;;;;;;4.45;2.28;;;;;;;8.71;100.00;95912.13;4992526;28;20420;-70
2022/11/10 02:06:22;;;;;;;3.20;1.98;;;;;;;8.75;100.00;95917.66;4992795;28;20050;-69
2022/11/10 02:08:49;;;;;;;4.15;2.47;;;;;;;8.70;100.00;95915.78;4990516;28;20500;-70
2022/11/10 02:11:15;;;;;;;3.63;2.05;;;;;;;8.73;100.00;95915.28;4996948;28;20053;-70
2022/11/10 02:13:41;;;;;;;4.93;2.28;;;;;;;8.70;100.00;95915.78;4992560;28;20046;-69
2022/11/10 02:16:08;;;;;;;5.10;2.30;;;;;;;8.70;100.00;95921.03;4974604;28;20051;-70
2022/11/10 02:18:34;;;;;;;4.75;2.45;;;;;;;8.74;100.00;95918.72;4974128;28;20046;-70
2022/11/10 02:21:02;;;;;;;4.85;2.22;;;;;;;8.72;100.00;95916.34;4982056;28;20106;-70
2022/11/10 02:23:28;;;;;;;4.97;2.30;;;;;;;8.72;100.00;95918.97;4993513;28;20425;-68
2022/11/10 02:25:53;;;;;;;5.18;2.10;;;;;;;8.77;100.00;95921.63;4993508;28;20122;-69
2022/11/10 02:28:19;;;;;;;2.92;1.77;;;;;;;8.74;100.00;95916.09;4991300;28;20060;-70
2022/11/10 02:30:44;;;;;;;3.85;2.30;;;;;;;8.73;100.00;95920.53;4995331;28;20415;-70
2022/11/10 02:33:10;;;;;;;3.55;2.20;;;;;;;8.74;100.00;95927.38;4986445;28;20589;-70
2022/11/10 02:35:35;;;;;;;3.60;1.98;;;;;;;8.75;100.00;95923.72;4973954;28;20035;-70
2022/11/10 02:38:01;;;;;;;4.10;2.13;;;;;;;8.71;100.00;95914.75;4969650;28;20668;-70
2022/11/10 02:40:26;;;;;;;2.42;1.77;;;;;;;8.73;100.00;95925.78;4985269;28;20669;-70
2022/11/10 02:42:51;;;;;;;4.75;2.00;;;;;;;8.73;100.00;95925.78;4991818;28;20118;-70
2022/11/10 02:45:17;;;;;;;5.30;1.90;;;;;;;8.76;100.00;95922.66;4985215;28;20066;-70
2022/11/10 02:47:42;;;;;;;3.30;1.90;;;;;;;8.75;100.00;95934.22;4985578;28;20054;-70
2022/11/10 02:50:08;;;;;;;4.30;1.88;;;;;;;8.80;100.00;95939.50;4992755;28;20699;-69
2022/11/10 02:52:34;;;;;;;2.65;1.63;;;;;;;8.88;100.00;95934.84;4992949;28;20426;-70
2022/11/10 02:54:59;;;;;;;3.10;1.83;;;;;;;8.78;100.00;95938.97;4994200;28;20043;-69
2022/11/10 02:57:25;;;;;;;2.70;1.70;;;;;;;8.80;100.00;95942.13;4986490;28;20070;-69
2022/11/10 02:59:50;;;;;;;3.30;1.80;;;;;;;8.76;100.00;95948.91;4973838;28;20062;-69
2022/11/10 03:13:18;;;;;;;3.67;2.05;;;;;;;8.89;100.00;95996.81;4975322;28;20042;-69
2022/11/10 03:15:46;;;;;;;6.30;2.80;;;;;;;8.75;100.00;95997.19;4984741;28;20050;-69
2022/11/10 03:18:12;;;;;;;7.82;2.40;;;;;;;8.61;100.00;96003.84;4990886;28;20046;-69
2022/11/10 03:20:37;;;;;;;7.60;2.42;;;;;;;8.55;100.00;96012.69;4991648;28;20414;-69
2022/11/10 03:23:04;;;;;;;4.32;2.30;;;;;;;8.46;100.00;96021.00;4994292;28;20045;-70
2022/11/10 03:25:30;;;;;;;9.98;2.40;;;;;;;8.45;100.00;96019.38;4994768;28;20050;-69
2022/11/10 03:27:55;;;;;;;5.05;2.70;;;;;;;8.35;100.00;96029.72;4973449;28;20105;-70
2022/11/10 03:30:21;;;;;;;5.40;2.50;;;;;;;8.39;100.00;96036.06;4973199;28;20035;-69
2022/11/10 03:32:46;;;;;;;11.27;2.97;;;;;;;8.45;100.00;96029.88;4976913;28;20038;-69
2022/11/10 03:35:11;;;;;;;5.25;2.45;;;;;;;8.39;100.00;96041.31;4989782;28;20050;-69
2022/11/10 03:37:40;;;;;;;5.10;2.60;;;;;;;8.44;100.00;96049.28;4983373;28;20109;-69
2022/11/10 03:40:06;;;;;;;9.80;3.13;;;;;;;8.31;100.00;96049.59;4988567;28;20054;-70
2022/11/10 03:42:31;;;;;;;5.97;2.50;;;;;;;8.43;100.00;96055.53;4994409;28;20053;-70
2022/11/10 03:44:57;;;;;;;7.55;2.53;;;;;;;8.30;100.00;96061.09;4997854;28;20030;-70
2022/11/10 03:47:22;;;;;;;6.65;2.88;;;;;;;8.28;100.00;96060.56;4989828;28;20410;-70
2022/11/10 03:49:48;;;;;;;5.00;2.58;;;;;;;8.27;100.00;96064.22;4974806;28;20070;-69
2022/11/10 03:52:14;;;;;;;10.02;2.78;;;;;;;8.18;100.00;96070.91;4983410;28;20058;-69
2022/11/10 03:54:39;;;;;;;14.40;3.78;;;;;;;8.26;100.00;96067.88;4981293;28;20047;-70
2022/11/10 03:57:05;;;;;;;7.55;2.60;;;;;;;8.30;100.00;96063.72;4984992;28;20125;-69
2022/11/10 03:59:30;;;;;;;10.48;2.97;;;;;;;8.19;100.00;96072.47;4991496;28;20042;-70
2022/11/10 04:01:56;;;;;;;8.10;3.08;;;;;;;8.13;100.00;96064.56;4995474;28;20038;-70
2022/11/10 04:09:52;;;;;;;7.43;2.90;;;;;;;8.02;100.00;96073.28;4986071;28;20042;-69
2022/11/10 04:17:50;;;;;;;7.22;3.20;;;;;;;8.08;100.00;96087.28;4990990;28;20068;-70
2022/11/10 04:20:16;;;;;;;4.82;2.80;;;;;;;8.08;100.00;96087.28;4980000;28;20047;-70
2022/11/10 04:25:26;;;;;;;7.78;3.20;;;;;;;7.98;100.00;96082.66;4989836;28;20385;-70
2022/11/10 04:27:51;;;;;;;7.82;3.25;;;;;;;7.96;100.00;96084.75;4980342;28;20050;-70
2022/11/10 04:30:17;;;;;;;7.70;3.55;;;;;;;7.92;100.00;96094.09;4971985;28;20094;-70
2022/11/10 04:32:42;;;;;;;8.85;3.58;;;;;;;7.88;100.00;96093.00;4985733;28;20126;-69
2022/11/10 04:35:08;;;;;;;9.18;3.90;;;;;;;7.89;100.00;96089.34;4991271;28;20416;-69
2022/11/10 04:37:33;;;;;;;12.95;4.20;;;;;;;7.80;100.00;96092.34;4988429;28;20504;-68
2022/11/10 04:39:59;;;;;;;15.02;4.15;;;;;;;7.83;100.00;96098.13;4972314;28;20057;-69
2022/11/10 04:42:24;;;;;;;10.55;4.22;;;;;;;7.83;100.00;96106.00;4972002;28;20050;-69
2022/11/10 04:44:50;;;;;;;12.70;4.68;;;;;;;7.86;100.00;96110.75;4992167;28;20038;-69
2022/11/10 04:47:15;;;;;;;11.25;4.00;;;;;;;7.86;100.00;96116.00;4992518;28;20507;-70
2022/11/10 04:49:41;;;;;;;17.55;4.95;;;;;;;7.86;100.00;96127.28;4969630;28;20056;-69
2022/11/10 04:52:06;;;;;;;11.45;3.92;;;;;;;7.91;100.00;96135.22;4995101;28;20442;-70
2022/11/10 04:54:32;;;;;;;10.07;3.78;;;;;;;7.89;100.00;96139.13;5002537;28;20033;-70
2022/11/10 04:56:57;;;;;;;11.73;4.03;;;;;;;7.91;100.00;96134.44;4995617;28;20050;-70
2022/11/10 04:59:23;;;;;;;9.85;3.40;;;;;;;7.87;100.00;96133.31;4983464;28;20046;-70
2022/11/10 05:01:48;;;;;;;12.63;3.78;;;;;;;7.87;100.00;96130.69;4976971;28;20074;-70
2022/11/10 05:04:14;;;;;;;12.27;4.03;;;;;;;7.91;100.00;96134.44;4992574;28;20146;-70
2022/11/10 05:06:39;;;;;;;9.20;3.42;;;;;;;7.87;100.00;96138.56;4996472;28;20057;-70
2022/11/10 05:09:05;;;;;;;9.30;3.80;;;;;;;7.85;100.00;96140.63;4977489;28;20055;-69
2022/11/10 05:11:30;;;;;;;13.98;4.50;;;;;;;7.85;100.00;96140.63;4977763;28;20105;-70
2022/11/10 05:13:56;;;;;;;9.70;3.95;;;;;;;7.79;100.00;96137.13;4988440;28;20542;-70
2022/11/10 05:16:21;;;;;;;12.05;4.15;;;;;;;7.75;100.00;96136.78;4997954;28;20038;-70
2022/11/10 05:18:52;;;;;;;11.75;4.15;;;;;;;7.74;100.00;96143.09;4988566;28;20416;-70
2022/11/10 05:21:18;;;;;;;7.65;3.60;;;;;;;7.71;100.00;96153.22;4985750;28;20567;-70
2022/11/10 05:23:45;;;;;;;12.13;3.97;;;;;;;7.71;100.00;96151.38;4990358;28;20042;-70
2022/11/10 05:26:16;;;;;;;9.98;3.55;;;;;;;7.79;100.00;96153.63;4975560;28;20189;-69
2022/11/10 05:28:43;;;;;;;6.78;3.30;;;;;;;7.76;100.00;96158.56;4986300;28;20047;-70
2022/11/10 05:31:10;;;;;;;8.32;3.10;;;;;;;7.71;100.00;96163.69;4980793;28;20464;-68
2022/11/10 05:33:36;;;;;;;11.20;3.15;;;;;;;7.75;100.00;96167.44;4982174;28;20105;-69
2022/11/10 05:36:03;;;;;;;12.65;3.75;;;;;;;7.70;100.00;96170.78;4977581;28;20039;-69
2022/11/10 05:38:29;;;;;;;6.63;2.97;;;;;;;7.73;100.00;96180.78;4996041;28;20413;-69
2022/11/10 05:40:55;;;;;;;15.00;3.55;;;;;;;7.69;100.00;96184.91;4985282;28;20054;-69
2022/11/10 05:43:21;;;;;;;8.52;3.05;;;;;;;7.66;100.00;96184.56;4984695;28;20457;-69
2022/11/10 05:45:46;;;;;;;9.73;3.13;;;;;;;7.71;100.00;96185.44;4993726;28;20118;-69
2022/11/10 05:48:12;;;;;;;8.63;3.40;;;;;;;7.68;100.00;96199.03;4987160;28;20050;-69
2022/11/10 05:50:37;;;;;;;10.00;3.40;;;;;;;7.64;100.00;96195.28;4990933;28;20057;-68
2022/11/10 05:53:03;;;;;;;11.70;3.38;;;;;;;7.66;100.00;96206.31;4978956;28;20055;-68
2022/11/10 05:55:29;;;;;;;9.68;3.30;;;;;;;7.61;100.00;96203.59;4982678;28;20105;-70
2022/11/10 05:57:55;;;;;;;9.43;3.53;;;;;;;7.63;100.00;96212.03;4997499;28;20042;-69
2022/11/10 06:00:24;;;;;;;11.02;3.45;;;;;;;7.66;100.00;96222.03;4998504;28;20049;-70
2022/11/10 06:03:04;;;;;;;8.82;3.55;;;;;;;7.75;100.00;96220.63;4978886;28;20416;-70
2022/11/10 06:05:34;;;;;;;11.88;3.50;;;;;;;7.68;100.00;96235.69;4981333;28;20039;-70
2022/11/10 06:08:01;;;;;;;8.55;3.40;;;;;;;7.69;100.00;96241.75;4980599;28;20050;-70
2022/11/10 06:10:27;;;;;;;9.90;3.47;;;;;;;7.67;100.00;96234.13;5001951;28;20462;-70
2022/11/10 06:12:53;;;;;;;10.70;3.42;;;;;;;7.65;100.00;96238.00;4986892;28;20566;-70
2022/11/10 06:15:19;;;;;;;9.35;3.65;;;;;;;7.69;100.00;96253.00;4985671;28;20046;-68
2022/11/10 06:17:45;;;;;;;7.75;3.83;;;;;;;7.69;100.00;96250.41;4984059;28;20046;-69
2022/11/10 06:20:13;;;;;;;7.88;3.85;;;;;;;7.67;100.00;96255.09;4994276;28;20050;-68
2022/11/10 06:22:39;;;;;;;8.27;3.92;;;;;;;7.62;100.00;96257.59;5005065;28;20069;-69
2022/11/10 06:25:05;;;;;;;11.95;4.18;;;;;;;7.65;100.00;96264.19;4999366;28;20496;-68
2022/11/10 06:27:31;;;;;;;11.00;3.28;;;;;;;7.66;100.00;96289.34;4993184;28;20455;-68
2022/11/10 06:29:56;;;;;;;15.82;4.28;;;;;;;7.68;100.00;96295.94;4998892;28;20037;-70
2022/11/10 06:32:22;;;;;;;14.60;3.75;;;;;;;7.71;100.00;96308.59;4997625;28;20096;-74
2022/11/10 06:34:48;;;;;;;12.38;4.03;;;;;;;7.72;100.00;96310.19;4993061;28;20054;-70
2022/11/10 06:37:13;;;;;;;11.32;4.40;;;;;;;7.71;100.00;96308.59;4992314;28;20431;-69
2022/11/10 06:39:39;;;;;;;11.73;4.70;;;;;;;7.73;100.00;96318.84;4989901;28;20066;-68
2022/11/10 06:42:04;;;;;;;11.95;5.00;;;;;;;7.75;100.00;96320.19;5001623;28;20467;-70
2022/11/10 06:44:30;;;;;;;13.60;5.00;;;;;;;7.73;100.00;96322.25;5010747;28;20046;-69
2022/11/10 06:46:55;;;;;;;12.35;4.70;;;;;;;7.74;100.00;96328.28;5009154;28;20186;-69
2022/11/10 06:49:21;;;;;;;12.90;4.32;;;;;;;7.76;100.00;96326.25;4996382;28;20065;-69
2022/11/10 06:51:46;;;;;;;11.32;4.43;;;;;;;7.75;100.00;96320.19;4990568;28;20046;-70
2022/11/10 06:54:12;;;;;;;10.68;3.88;;;;;;;7.78;100.00;96335.44;4973955;28;20038;-69
2022/11/10 06:56:38;;;;;;;11.57;4.22;;;;;;;7.76;100.00;96326.25;4979106;28;20042;-70
2022/11/10 06:59:04;;;;;;;11.18;4.00;;;;;;;7.71;100.00;96334.78;4990416;28;20050;-68
2022/11/10 07:01:29;;;;;;;9.50;3.75;;;;;;;7.78;100.00;96340.69;4992367;28;20039;-69
2022/11/10 07:03:55;;;;;;;10.70;3.63;;;;;;;7.75;100.00;96341.16;5000048;28;20054;-73
2022/11/10 07:06:21;;;;;;;12.60;3.75;;;;;;;7.73;100.00;96353.72;5000529;28;20606;-66
2022/11/10 07:08:47;;;;;;;8.77;3.45;;;;;;;7.76;100.00;96358.47;4987407;28;20054;-70
2022/11/10 07:11:13;;;;;;;15.98;3.78;;;;;;;7.70;100.00;96354.16;4978861;28;20054;-69
2022/11/10 07:13:39;;;;;;;9.38;3.58;;;;;;;7.76;100.00;96368.97;4977101;28;20039;-69
2022/11/10 07:16:06;;;;;;;9.77;3.83;;;;;;;7.70;100.00;96363.84;4987733;28;20042;-68
2022/11/10 07:18:32;;;;;;;10.20;3.60;;;;;;;7.65;100.00;96367.16;4992151;28;20042;-68
2022/11/10 07:20:58;;;;;;;13.10;3.80;;;;;;;7.65;100.00;96374.22;4975381;28;20062;-67
2022/11/10 07:23:23;;;;;;;10.23;4.22;;;;;;;7.57;100.00;96370.94;4992821;28;20070;-67
2022/11/10 07:25:49;;;;;;;13.75;3.75;;;;;;;7.58;100.00;96374.31;4979089;28;20471;-67
2022/11/10 07:28:14;;;;;;;10.60;3.63;;;;;;;7.56;100.00;96389.50;4987312;28;20081;-67
2022/11/10 07:30:40;;;;;;;16.00;4.65;;;;;;;7.50;100.00;96406.91;4990333;28;20046;-66
2022/11/10 07:33:12;;;;;;;9.32;4.13;;;;;;;7.60;100.00;96401.09;4988096;28;20133;-67
2022/11/10 07:35:38;;;;;;;10.32;4.15;;;;;;;7.79;100.00;96405.19;4986420;28;20052;-69
2022/11/10 07:38:06;;;;;;;11.50;4.53;;;;;;;7.91;100.00;96407.78;4992127;28;20519;-68
2022/11/10 07:40:32;;;;;;;13.65;4.65;;;;;;;8.03;100.00;96413.03;4999935;28;20073;-68
2022/11/10 07:42:58;;;;;;;15.50;4.65;;;;;;;8.13;100.00;96413.25;4974285;28;20051;-68
2022/11/10 07:45:24;;;;;;;14.10;4.63;;;;;;;8.17;100.00;96420.66;4986070;28;20108;-68
2022/11/10 07:47:50;;;;;;;17.42;5.57;;;;;;;8.24;100.00;96427.34;4986541;28;20057;-68
2022/11/10 07:50:16;;;;;;;11.65;5.18;;;;;;;8.25;100.00;96422.91;4987518;28;20285;-70
2022/11/10 07:52:42;;;;;;;15.32;5.60;;;;;;;8.25;100.00;96423.69;4980233;28;20063;-70
2022/11/10 07:55:08;;;;;;;15.07;5.20;;;;;;;8.33;100.00;96420.72;4970441;28;20047;-68
2022/11/10 07:57:33;;;;;;;12.07;4.95;;;;;;;8.35;100.00;96428.34;4981799;28;20379;-68
2022/11/10 07:59:59;;;;;;;13.55;5.13;;;;;;;8.37;100.00;96431.53;4995372;28;20511;-68
2022/11/10 08:02:25;;;;;;;11.65;4.63;;;;;;;8.52;100.00;96425.03;4989126;28;20087;-68
2022/11/10 08:04:51;;;;;;;11.38;4.68;;;;;;;8.55;100.00;96437.66;4996965;28;20045;-67
2022/11/10 08:07:17;;;;;;;9.35;4.47;;;;;;;8.52;100.00;96427.63;4990119;28;20692;-68
2022/11/10 08:09:43;;;;;;;14.60;4.32;;;;;;;8.57;100.00;96433.00;4990251;28;20045;-67
2022/11/10 08:12:09;;;;;;;9.82;4.43;;;;;;;8.65;100.00;96432.63;4988098;28;20041;-67
2022/11/10 08:14:34;;;;;;;10.25;4.55;;;;;;;8.88;100.00;96437.00;4989197;28;20054;-67
2022/11/10 08:17:00;;;;;;;13.43;4.70;;;;;;;8.88;100.00;96438.78;4990301;28;20069;-68
2022/11/10 08:19:26;;;;;;;9.43;3.92;;;;;;;8.87;100.00;96445.09;5004206;28;20046;-69
2022/11/10 08:21:52;;;;;;;11.88;4.63;;;;;;;8.73;100.00;96445.38;4993237;28;20129;-67
2022/11/10 08:24:17;;;;;;;12.13;4.10;;;;;;;8.72;100.00;96443.78;4984707;28;20411;-68
2022/11/10 08:26:43;;;;;;;12.27;4.20;;;;;;;8.84;100.00;96447.16;5010086;28;20049;-69
2022/11/10 08:29:08;;;;;;;12.23;4.68;;;;;;;8.80;100.00;96446.03;4983639;28;20052;-68
2022/11/10 08:31:34;;;;;;;11.07;4.22;;;;;;;8.86;100.00;96443.50;4990069;28;20132;-68
2022/11/10 08:33:59;;;;;;;11.23;4.72;;;;;;;8.92;100.00;96453.88;4987054;28;20488;-68
2022/11/10 08:36:25;;;;;;;9.73;4.43;;;;;;;9.05;100.00;96458.03;4971954;28;20046;-68
2022/11/10 08:38:50;;;;;;;13.60;4.32;;;;;;;9.14;100.00;96451.34;4985733;28;20417;-68
2022/11/10 08:41:16;;;;;;;11.18;4.75;;;;;;;9.23;100.00;96458.84;4988871;28;20129;-68
2022/11/10 08:43:42;;;;;;;16.48;5.07;;;;;;;9.35;100.00;96451.69;4987820;28;20113;-68
2022/11/10 08:46:07;;;;;;;12.23;4.03;;;;;;;9.40;100.00;96459.66;4978093;28;20035;-67
2022/11/10 08:48:33;;;;;;;9.23;3.95;;;;;;;9.49;100.00;96463.47;4990404;28;20042;-68
2022/11/10 08:51:00;;;;;;;15.93;4.72;;;;;;;9.52;100.00;96463.03;4987233;28;20069;-68
2022/11/10 08:53:26;;;;;;;9.85;3.92;;;;;;;9.61;100.00;96471.31;4991225;28;20049;-68
2022/11/10 08:55:52;;;;;;;9.32;3.75;;;;;;;9.65;100.00;96482.13;4982770;28;20038;-68
2022/11/10 08:58:20;;;;;;;10.88;3.90;;;;;;;9.87;100.00;96490.09;4991176;28;20109;-68
2022/11/10 09:00:46;;;;;;;10.13;4.00;;;;;;;10.07;100.00;96497.47;4989320;28;20061;-69
2022/11/10 09:03:13;;;;;;;10.85;4.00;;;;;;;10.23;100.00;96503.75;4988056;28;20093;-68
2022/11/10 09:05:40;;;;;;;6.32;3.40;;;;;;;10.17;100.00;96500.25;4974920;28;20046;-68
2022/11/10 09:08:06;;;;;;;6.68;3.25;;;;;;;10.15;100.00;96506.78;4991953;28;20046;-68
2022/11/10 09:10:33;;;;;;;11.38;3.85;;;;;;;10.13;100.00;96504.41;4978618;28;20129;-68
2022/11/10 09:13:00;;;;;;;6.85;3.28;;;;;;;10.18;100.00;96501.81;4973285;28;20077;-68
2022/11/10 09:15:27;;;;;;;9.57;3.72;;;;;;;10.15;100.00;96512.84;4982187;28;20050;-68
2022/11/10 09:17:52;;;;;;;9.93;3.97;;;;;;;10.12;100.00;96523.84;4981206;28;20053;-67
2022/11/10 09:20:18;;;;;;;9.05;3.60;;;;;;;10.11;100.00;96524.88;4988394;28;20046;-68
2022/11/10 09:22:44;;;;;;;7.03;3.33;;;;;;;10.16;100.00;96524.94;4987098;28;20057;-70
2022/11/10 09:25:09;;;;;;;9.63;3.55;;;;;;;10.26;100.00;96531.38;4980061;28;20058;-68
2022/11/10 09:27:37;;;;;;;9.68;3.40;;;;;;;10.28;100.00;96531.97;4982651;28;20113;-68
2022/11/10 09:30:05;;;;;;;11.25;3.50;;;;;;;10.30;100.00;96540.38;4981308;28;20704;-69
2022/11/10 09:32:31;;;;;;;6.57;3.22;;;;;;;11.54;100.00;96543.44;4971914;28;20042;-69
2022/11/10 09:34:57;;;;;;;9.48;3.50;;;;;;;11.73;100.00;96545.72;4983692;28;20069;-70
2022/11/10 09:37:23;;;;;;;5.50;2.85;;;;;;;12.58;100.00;96551.06;4977142;28;20053;-69
2022/11/10 09:39:48;;;;;;;7.57;3.15;;;;;;;13.10;100.00;96538.06;4974550;28;20055;-70
2022/11/10 09:42:28;;;;;;;11.95;2.90;;;;;;;13.61;100.00;96540.88;4972790;28;20049;-70
2022/11/10 09:45:06;;;;;;;7.10;2.75;;;;;;;13.26;100.00;96547.66;4989400;28;20034;-70
2022/11/10 09:48:09;;;;;;;6.50;2.58;;;;;;;12.94;100.00;96556.53;4976833;28;20039;-68
2022/11/10 09:50:49;;;;;;;11.13;2.78;;;;;;;14.08;100.00;96548.81;4978249;28;20046;-74
2022/11/10 09:53:29;;;;;;;7.65;2.50;;;;;;;14.91;100.00;96555.53;4988405;28;20045;-70
2022/11/10 09:55:59;;;;;;;6.63;2.33;;;;;;;15.55;100.00;96553.09;4982419;28;20061;-69
2022/11/10 09:58:32;;;;;;;10.60;2.50;;;;;;;13.62;100.00;96558.31;4978542;28;20050;-68
2022/11/10 10:01:23;;;;;;;7.20;3.28;;;;;;;12.14;100.00;96561.91;4970889;28;20467;-68
2022/11/10 10:04:12;;;;;;;7.78;2.42;;;;;;;11.83;100.00;96561.63;4986507;28;20046;-69
2022/11/10 10:06:48;;;;;;;5.35;2.55;;;;;;;11.54;100.00;96569.03;4982279;28;20046;-68
2022/11/10 10:09:27;;;;;;;11.23;2.90;;;;;;;11.79;100.00;96571.09;4988847;28;20057;-68
2022/11/10 10:12:09;;;;;;;8.05;2.58;;;;;;;11.58;100.00;96562.22;4981632;28;20064;-68
2022/11/10 10:14:58;;;;;;;7.88;2.70;;;;;;;11.69;100.00;96571.78;4988752;28;20062;-68
2022/11/10 10:17:41;;;;;;;5.60;3.20;;;;;;;11.71;100.00;96577.63;4986660;28;20050;-68
2022/11/10 10:20:41;;;;;;;9.77;3.00;;;;;;;11.70;100.00;96583.16;4980163;28;20198;-68
2022/11/10 10:23:31;;;;;;;13.52;2.67;;;;;;;12.72;100.00;96579.69;4947145;28;20046;-68
2022/11/10 10:25:57;;;;;;;10.93;3.00;;;;;;;14.85;100.00;96589.19;4983375;28;20507;-67
2022/11/10 10:28:38;;;;;;;7.82;2.38;;;;;;;15.47;100.00;96588.16;4989574;28;20039;-68
2022/11/10 10:31:19;;;;;;;6.85;2.28;;;;;;;14.78;100.00;96587.91;4992407;28;20042;-68
2022/11/10 10:33:46;;;;;;;14.93;3.20;;;;;;;14.84;100.00;96592.13;5001878;28;20058;-68
2022/11/10 10:36:18;;;;;;;8.15;2.55;;;;;;;13.34;100.00;96594.75;4987479;28;20475;-68
2022/11/10 10:38:49;;;;;;;11.10;2.97;;;;;;;13.38;100.00;96583.66;4985365;28;20054;-68
2022/11/10 10:41:23;;;;;;;8.98;2.50;;;;;;;12.57;100.00;96581.19;5009781;28;20979;-67
2022/11/10 10:43:53;;;;;;;11.27;2.50;;;;;;;12.27;100.00;96574.66;5007069;28;20082;-67
2022/11/10 10:46:23;;;;;;;11.63;2.70;;;;;;;12.18;100.00;96573.53;4998719;28;20131;-66
2022/11/10 10:49:07;;;;;;;9.82;2.45;;;;;;;11.72;100.00;96583.69;5017914;28;20049;-67
2022/11/10 10:51:33;;;;;;;7.65;2.75;;;;;;;11.63;100.00;96593.09;5000108;28;20058;-67
2022/11/10 10:53:58;;;;;;;5.82;2.40;;;;;;;12.59;100.00;96592.28;5014717;28;20038;-66
2022/11/10 10:56:30;;;;;;;9.88;2.90;;;;;;;13.97;100.00;96591.16;5001259;28;20058;-66
2022/11/10 10:58:59;;;;;;;7.00;2.53;;;;;;;13.60;100.00;96591.38;5011688;28;20030;-68
2022/11/10 11:01:28;;;;;;;5.65;2.38;;;;;;;12.68;100.00;96597.09;5015809;28;20030;-68
2022/11/10 11:03:54;;;;;;;14.63;3.45;;;;;;;12.41;100.00;96600.59;4979787;28;20077;-70
2022/11/10 11:06:25;;;;;;;8.02;2.65;;;;;;;13.47;100.00;96597.97;4988181;28;20042;-68
2022/11/10 11:09:00;;;;;;;10.55;2.30;;;;;;;14.38;100.00;96591.16;4974280;28;20054;-68
2022/11/10 11:11:32;;;;;;;4.85;2.30;;;;;;;13.85;100.00;96590.63;4992672;28;20038;-68
2022/11/10 11:14:21;;;;;;;10.07;2.55;;;;;;;12.68;100.00;96602.38;4989050;28;20042;-68
2022/11/10 11:16:55;;;;;;;5.18;2.10;;;;;;;13.05;100.00;96601.50;4998098;28;20049;-67
2022/11/10 11:19:24;;;;;;;7.57;2.45;;;;;;;13.26;100.00;96603.16;4972395;28;20499;-69
2022/11/10 11:21:59;;;;;;;6.57;2.30;;;;;;;13.36;100.00;96602.44;4985584;28;20038;-68
2022/11/10 11:24:42;;;;;;;;;;;;;;;12.36;100.00;96611.16;4999243;28;20125;-68
2022/11/10 11:27:27;;;;;;;5.68;2.30;;;;;;;12.37;100.00;96618.00;4989506;28;20014;-68
2022/11/10 11:30:13;;;;;;;6.18;1.98;;;;;;;12.14;100.00;96619.97;4991334;28;20058;-68
2022/11/10 11:32:57;;;;;;;7.32;2.22;;;;;;;13.25;100.00;96616.66;4976937;28;20046;-72
2022/11/10 11:35:54;;;;;;;6.53;2.03;;;;;;;16.00;100.00;96612.25;4987936;28;20141;-68
2022/11/10 11:38:32;;;;;;;6.75;2.30;;;;;;;16.94;89.17;96613.03;4962390;28;20055;-67
2022/11/10 11:41:12;;;;;;;6.40;1.95;;;;;;;15.94;89.27;96608.06;4987502;28;20049;-70
2022/11/10 11:43:56;;;;;;;4.70;1.80;;;;;;;16.84;91.40;96605.13;4998172;28;20050;-68
2022/11/10 11:46:52;;;;;;;8.70;3.28;;;;;;;18.52;76.98;96600.47;4986429;28;20050;-68
2022/11/10 11:49:39;;;;;;;5.43;1.80;;;;;;;19.02;64.61;96597.97;4978671;28;20042;-69
2022/11/10 11:52:29;;;;;;;4.25;1.60;;;;;;;19.82;64.67;96597.63;4992723;28;20125;-68
2022/11/10 11:55:21;;;;;;;3.90;1.60;;;;;;;16.38;86.37;96601.88;4992079;28;20046;-67
2022/11/10 11:58:04;;;;;;;3.08;1.70;;;;;;;17.25;71.24;96607.34;4982767;28;20050;-67
2022/11/10 12:00:47;;;;;;;2.67;1.52;;;;;;;15.65;80.67;96595.47;5004276;28;20042;-68
2022/11/10 12:03:33;;;;;;;4.22;1.70;;;;;;;15.03;85.59;96585.19;4996943;28;20082;-67